Time;durP1;ratioP1;P1;durP2;ratioP2;P2;SDS_P1;SDS_P2;PMS_P1;PMS_P2;Temp;Humidity;BMP_temperature;BMP_pressure;BME280_temperature;BME280_humidity;BME280_pressure;Samples;Min_cycle;Max_cycle;Signal;HPM_P1;HPM_P2
2023/08/06 00:00:38;;;;;;;1.20;0.70;;;;;;;;;;7305577;19;140507;-80
2023/08/06 00:03:05;;;;;;;1.55;0.90;;;;;;;;;;7304649;19;140490;-80
2023/08/06 00:05:33;;;;;;;0.77;0.75;;;;;;;;;;7306084;19;141424;-80
2023/08/06 00:08:00;;;;;;;1.42;0.60;;;;;;;;;;7304144;19;141364;-80
2023/08/06 00:10:27;;;;;;;0.80;0.80;;;;;;;;;;7305758;19;140663;-80
2023/08/06 00:12:54;;;;;;;1.55;0.80;;;;;;;;;;7304643;19;140758;-79
2023/08/06 00:15:22;;;;;;;1.10;0.90;;;;;;;;;;7305041;19;140825;-79
2023/08/06 00:17:49;;;;;;;1.13;0.93;;;;;;;;;;7305368;19;141599;-79
2023/08/06 00:20:16;;;;;;;0.82;0.70;;;;;;;;;;7305838;19;140630;-78
2023/08/06 00:22:43;;;;;;;0.90;0.60;;;;;;;;;;7304972;19;140713;-80
2023/08/06 00:25:36;;;;;;;0.90;0.65;;;;;;;;;;7302678;19;141731;-79
2023/08/06 00:28:03;;;;;;;0.80;0.75;;;;;;;;;;7305836;19;140813;-79
2023/08/06 00:30:31;;;;;;;0.85;0.68;;;;;;;;;;7309041;19;140593;-82
2023/08/06 00:32:58;;;;;;;0.70;0.65;;;;;;;;;;7307251;19;142951;-81
2023/08/06 00:35:25;;;;;;;0.70;0.70;;;;;;;;;;7303039;19;142031;-80
2023/08/06 00:37:52;;;;;;;2.78;0.93;;;;;;;;;;7327409;19;141692;-81
2023/08/06 00:40:20;;;;;;;0.82;0.52;;;;;;;;;;7336974;19;139531;-81
2023/08/06 00:42:47;;;;;;;1.02;0.68;;;;;;;;;;7335171;19;139374;-81
2023/08/06 00:45:14;;;;;;;0.98;0.82;;;;;;;;;;7333994;19;140494;-80
2023/08/06 00:47:42;;;;;;;0.80;0.60;;;;;;;;;;7332674;19;141086;-81
2023/08/06 00:50:09;;;;;;;0.68;0.60;;;;;;;;;;7326280;19;140543;-81
2023/08/06 00:52:36;;;;;;;1.00;0.70;;;;;;;;;;7302853;19;140976;-80
2023/08/06 00:55:04;;;;;;;1.02;0.80;;;;;;;;;;7307982;19;141305;-82
2023/08/06 00:57:32;;;;;;;1.00;0.90;;;;;;;;;;7306292;19;142261;-79
2023/08/06 00:59:59;;;;;;;1.30;0.70;;;;;;;;;;7303915;19;140638;-80
2023/08/06 01:02:26;;;;;;;0.43;0.43;;;;;;;;;;7303224;19;140681;-81
2023/08/06 01:05:03;;;;;;;3.28;1.38;;;;;;;;;;7302166;19;141007;-81
2023/08/06 01:07:36;;;;;;;1.02;0.60;;;;;;;;;;7306262;19;140955;-80
2023/08/06 01:10:22;;;;;;;0.70;0.50;;;;;;;;;;7309791;19;140511;-81
2023/08/06 01:13:05;;;;;;;1.13;0.65;;;;;;;;;;7304612;19;140533;-80
2023/08/06 01:15:43;;;;;;;0.82;0.73;;;;;;;;;;7305543;19;140609;-82
2023/08/06 01:18:10;;;;;;;1.02;0.77;;;;;;;;;;7301960;19;142522;-81
2023/08/06 01:20:38;;;;;;;0.95;0.80;;;;;;;;;;7298246;19;141594;-81
2023/08/06 01:23:05;;;;;;;3.60;1.55;;;;;;;;;;7296900;19;140497;-81
2023/08/06 01:25:43;;;;;;;0.53;0.50;;;;;;;;;;7304591;19;140507;-81
2023/08/06 01:28:33;;;;;;;1.23;0.63;;;;;;;;;;7302407;19;141916;-82
2023/08/06 01:31:02;;;;;;;0.98;0.75;;;;;;;;;;7306308;19;140790;-81
2023/08/06 01:33:31;;;;;;;0.75;0.65;;;;;;;;;;7300834;19;140544;-81
2023/08/06 01:36:21;;;;;;;1.42;0.80;;;;;;;;;;7303643;19;141346;-81
2023/08/06 01:38:53;;;;;;;1.65;0.93;;;;;;;;;;7303938;19;140762;-82
2023/08/06 01:41:26;;;;;;;0.82;0.70;;;;;;;;;;7300810;19;140770;-82
2023/08/06 01:43:53;;;;;;;1.20;0.82;;;;;;;;;;7302652;19;140804;-84
2023/08/06 01:46:20;;;;;;;0.50;0.50;;;;;;;;;;7302372;19;140481;-83
2023/08/06 01:49:01;;;;;;;0.80;0.80;;;;;;;;;;7301084;19;141302;-80
2023/08/06 01:51:28;;;;;;;0.60;0.60;;;;;;;;;;7303632;19;140543;-83
2023/08/06 01:53:55;;;;;;;0.73;0.68;;;;;;;;;;7306802;19;140618;-82
2023/08/06 01:56:22;;;;;;;0.50;0.50;;;;;;;;;;7302183;19;141592;-80
2023/08/06 01:58:59;;;;;;;0.63;0.63;;;;;;;;;;7298931;19;143103;-79
2023/08/06 02:01:30;;;;;;;1.25;0.73;;;;;;;;;;7304342;19;140412;-79
2023/08/06 02:03:57;;;;;;;0.60;0.57;;;;;;;;;;7304517;19;140768;-79
2023/08/06 02:06:24;;;;;;;0.90;0.40;;;;;;;;;;7305183;19;141652;-79
2023/08/06 02:08:51;;;;;;;0.60;0.60;;;;;;;;;;7305427;19;142476;-79
2023/08/06 02:11:18;;;;;;;0.60;0.60;;;;;;;;;;7302579;19;140698;-79
2023/08/06 02:13:47;;;;;;;0.63;0.63;;;;;;;;;;7300468;19;140699;-79
2023/08/06 02:16:14;;;;;;;0.60;0.60;;;;;;;;;;7305023;19;140558;-79
2023/08/06 02:18:41;;;;;;;0.70;0.40;;;;;;;;;;7305246;19;141502;-79
2023/08/06 02:21:15;;;;;;;1.00;0.65;;;;;;;;;;7302444;19;140741;-79
2023/08/06 02:23:52;;;;;;;1.05;0.65;;;;;;;;;;7304929;19;140624;-80
2023/08/06 02:26:19;;;;;;;0.60;0.60;;;;;;;;;;7304246;19;140850;-80
2023/08/06 02:28:46;;;;;;;0.60;0.60;;;;;;;;;;7304726;19;141882;-79
2023/08/06 02:31:14;;;;;;;1.23;0.73;;;;;;;;;;7304729;19;140569;-79
2023/08/06 02:33:41;;;;;;;0.52;0.52;;;;;;;;;;7305136;19;140377;-79
2023/08/06 02:36:08;;;;;;;0.57;0.52;;;;;;;;;;7305097;19;141699;-79
2023/08/06 02:38:35;;;;;;;0.50;0.50;;;;;;;;;;7303070;19;141283;-79
2023/08/06 02:41:04;;;;;;;0.75;0.50;;;;;;;;;;7300574;19;140555;-81
2023/08/06 02:43:31;;;;;;;0.55;0.45;;;;;;;;;;7300805;19;140691;-79
2023/08/06 02:45:59;;;;;;;0.60;0.55;;;;;;;;;;7309724;19;141742;-78
2023/08/06 02:48:26;;;;;;;1.85;0.70;;;;;;;;;;7323491;19;140510;-79
2023/08/06 02:50:59;;;;;;;1.05;0.70;;;;;;;;;;7321801;19;140498;-78
2023/08/06 02:53:26;;;;;;;0.55;0.40;;;;;;;;;;7313432;19;140664;-79
2023/08/06 02:58:24;;;;;;;0.85;0.50;;;;;;;;;;7146848;19;3162570;-79
2023/08/06 03:01:02;;;;;;;0.57;0.57;;;;;;;;;;7301370;19;140600;-79
2023/08/06 03:03:33;;;;;;;0.90;0.50;;;;;;;;;;7300410;19;140742;-78
2023/08/06 03:06:03;;;;;;;0.60;0.60;;;;;;;;;;7300821;19;142338;-79
2023/08/06 03:08:31;;;;;;;1.08;0.50;;;;;;;;;;7302353;19;142253;-79
2023/08/06 03:10:58;;;;;;;0.40;0.40;;;;;;;;;;7302948;19;140593;-79
2023/08/06 03:13:25;;;;;;;0.73;0.60;;;;;;;;;;7302999;19;140373;-80
2023/08/06 03:15:56;;;;;;;0.77;0.55;;;;;;;;;;7300926;19;140638;-80
2023/08/06 03:18:23;;;;;;;;;;;;;;;;;;7300955;19;141148;-79
2023/08/06 03:20:50;;;;;;;0.90;0.55;;;;;;;;;;7303928;19;140354;-82
2023/08/06 03:23:24;;;;;;;1.23;0.73;;;;;;;;;;7301776;19;140844;-82
2023/08/06 03:25:52;;;;;;;0.52;0.50;;;;;;;;;;7304229;19;141592;-80
2023/08/06 03:28:19;;;;;;;0.50;0.50;;;;;;;;;;7302076;19;140812;-80
2023/08/06 03:30:46;;;;;;;0.73;0.52;;;;;;;;;;7303255;19;140803;-79
2023/08/06 03:33:13;;;;;;;0.90;0.57;;;;;;;;;;7303520;19;140757;-80
2023/08/06 03:35:40;;;;;;;0.70;0.55;;;;;;;;;;7301439;19;141689;-80
2023/08/06 03:38:18;;;;;;;0.47;0.47;;;;;;;;;;7299493;19;141993;-80
2023/08/06 03:40:48;;;;;;;0.45;0.45;;;;;;;;;;7303674;19;140358;-81
2023/08/06 03:43:15;;;;;;;0.60;0.53;;;;;;;;;;7306367;19;140583;-81
2023/08/06 03:45:42;;;;;;;0.47;0.47;;;;;;;;;;7306265;19;140760;-79
2023/08/06 03:48:10;;;;;;;0.60;0.50;;;;;;;;;;7307115;19;142934;-78
2023/08/06 03:50:37;;;;;;;0.50;0.50;;;;;;;;;;7308759;19;140903;-79
2023/08/06 03:53:05;;;;;;;0.50;0.50;;;;;;;;;;7307254;19;140594;-79
2023/08/06 03:55:32;;;;;;;0.80;0.50;;;;;;;;;;7308540;19;141336;-79
2023/08/06 03:57:59;;;;;;;0.50;0.50;;;;;;;;;;7309247;19;142094;-78
2023/08/06 04:00:29;;;;;;;0.47;0.47;;;;;;;;;;7307572;19;140853;-78
2023/08/06 04:02:56;;;;;;;0.52;0.50;;;;;;;;;;7308542;19;140633;-79
2023/08/06 04:05:26;;;;;;;0.82;0.63;;;;;;;;;;7307111;19;141212;-78
2023/08/06 04:07:54;;;;;;;0.50;0.50;;;;;;;;;;7307876;19;142565;-78
2023/08/06 04:10:21;;;;;;;0.40;0.40;;;;;;;;;;7306072;19;140805;-79
2023/08/06 04:12:48;;;;;;;0.65;0.52;;;;;;;;;;7307171;19;140723;-79
2023/08/06 04:15:15;;;;;;;0.65;0.57;;;;;;;;;;7305154;19;141020;-79
2023/08/06 04:17:42;;;;;;;1.17;0.57;;;;;;;;;;7302276;19;141574;-79
2023/08/06 04:20:10;;;;;;;1.17;0.65;;;;;;;;;;7304408;19;140430;-79
2023/08/06 04:22:37;;;;;;;0.57;0.40;;;;;;;;;;7304431;19;140530;-79
2023/08/06 04:25:06;;;;;;;0.57;0.50;;;;;;;;;;7306386;19;141908;-79
2023/08/06 04:27:33;;;;;;;0.63;0.45;;;;;;;;;;7306100;19;140640;-79
2023/08/06 04:30:00;;;;;;;1.17;0.60;;;;;;;;;;7304762;19;140373;-79
2023/08/06 04:32:27;;;;;;;0.50;0.40;;;;;;;;;;7305127;19;140589;-79
2023/08/06 04:34:55;;;;;;;0.43;0.40;;;;;;;;;;7302199;19;141122;-79
2023/08/06 04:37:22;;;;;;;0.50;0.40;;;;;;;;;;7304561;19;142129;-78
2023/08/06 04:39:49;;;;;;;0.50;0.50;;;;;;;;;;7305207;19;140821;-78
2023/08/06 04:42:16;;;;;;;0.50;0.40;;;;;;;;;;7304959;19;140385;-78
2023/08/06 04:44:43;;;;;;;0.43;0.43;;;;;;;;;;7304451;19;141606;-78
2023/08/06 04:47:10;;;;;;;0.75;0.50;;;;;;;;;;7303020;19;142064;-78
2023/08/06 04:49:37;;;;;;;0.65;0.50;;;;;;;;;;7302832;19;140658;-78
2023/08/06 04:52:05;;;;;;;0.50;0.50;;;;;;;;;;7304759;19;140336;-78
2023/08/06 04:54:32;;;;;;;1.05;0.52;;;;;;;;;;7301500;19;140777;-79
2023/08/06 04:56:59;;;;;;;0.70;0.47;;;;;;;;;;7303970;19;142594;-81
2023/08/06 04:59:26;;;;;;;0.50;0.50;;;;;;;;;;7305393;19;140469;-79
2023/08/06 05:01:53;;;;;;;1.42;0.60;;;;;;;;;;7304525;19;140661;-79
2023/08/06 05:04:21;;;;;;;0.60;0.60;;;;;;;;;;7303698;19;140970;-79
2023/08/06 05:06:48;;;;;;;0.90;0.60;;;;;;;;;;7302357;19;141232;-78
2023/08/06 05:09:15;;;;;;;0.47;0.47;;;;;;;;;;7304468;19;140614;-79
2023/08/06 05:11:42;;;;;;;1.08;0.70;;;;;;;;;;7304938;19;140420;-79
2023/08/06 05:14:09;;;;;;;1.00;0.60;;;;;;;;;;7306042;19;141370;-79
2023/08/06 05:16:36;;;;;;;0.57;0.45;;;;;;;;;;7306880;19;140832;-80
2023/08/06 05:19:03;;;;;;;0.52;0.52;;;;;;;;;;7300944;19;140511;-80
2023/08/06 05:21:31;;;;;;;0.50;0.50;;;;;;;;;;7303869;19;140832;-78
2023/08/06 05:23:58;;;;;;;0.52;0.52;;;;;;;;;;7303896;19;140747;-79
2023/08/06 05:26:25;;;;;;;0.88;0.50;;;;;;;;;;7307308;19;140825;-79
2023/08/06 05:28:52;;;;;;;0.50;0.50;;;;;;;;;;7307596;19;140501;-79
2023/08/06 05:31:19;;;;;;;0.38;0.38;;;;;;;;;;7303171;19;140612;-80
2023/08/06 05:33:46;;;;;;;0.52;0.50;;;;;;;;;;7302520;19;141068;-80
2023/08/06 05:36:13;;;;;;;0.82;0.60;;;;;;;;;;7301879;19;140987;-80
2023/08/06 05:38:40;;;;;;;1.02;0.60;;;;;;;;;;7303134;19;140923;-79
2023/08/06 05:41:07;;;;;;;1.42;0.40;;;;;;;;;;7301455;19;140606;-80
2023/08/06 05:43:34;;;;;;;0.63;0.47;;;;;;;;;;7301027;19;141697;-81
2023/08/06 05:46:02;;;;;;;0.95;0.50;;;;;;;;;;7303100;19;140684;-79
2023/08/06 05:48:29;;;;;;;0.50;0.50;;;;;;;;;;7302207;19;140893;-80
2023/08/06 05:50:56;;;;;;;0.68;0.50;;;;;;;;;;7301917;19;140496;-80
2023/08/06 05:53:23;;;;;;;2.03;1.00;;;;;;;;;;7295266;19;141190;-79
2023/08/06 05:55:50;;;;;;;1.05;0.60;;;;;;;;;;7302868;19;142127;-80
2023/08/06 05:58:19;;;;;;;2.20;0.98;;;;;;;;;;7299768;19;140675;-79
2023/08/06 06:01:20;;;;;;;0.68;0.60;;;;;;;;;;7299118;19;140989;-78
2023/08/06 06:03:47;;;;;;;0.50;0.45;;;;;;;;;;7301370;19;140624;-78
2023/08/06 06:06:16;;;;;;;0.60;0.50;;;;;;;;;;7298090;19;141832;-74
2023/08/06 06:08:43;;;;;;;0.60;0.50;;;;;;;;;;7302400;19;140813;-73
2023/08/06 06:11:10;;;;;;;0.40;0.40;;;;;;;;;;7301629;19;140687;-73
2023/08/06 06:13:38;;;;;;;0.40;0.40;;;;;;;;;;7301113;19;142175;-73
2023/08/06 06:16:05;;;;;;;0.55;0.52;;;;;;;;;;7300973;19;141830;-73
2023/08/06 06:18:32;;;;;;;0.98;0.40;;;;;;;;;;7301316;19;140971;-74
2023/08/06 06:21:02;;;;;;;0.57;0.57;;;;;;;;;;7300735;19;140734;-73
2023/08/06 06:23:29;;;;;;;0.60;0.40;;;;;;;;;;7301309;19;141501;-73
2023/08/06 06:25:56;;;;;;;1.00;0.50;;;;;;;;;;7300618;19;141464;-72
2023/08/06 06:28:23;;;;;;;0.40;0.40;;;;;;;;;;7301188;19;140662;-73
2023/08/06 06:30:51;;;;;;;0.90;0.60;;;;;;;;;;7300744;19;140629;-73
2023/08/06 06:33:18;;;;;;;1.10;0.60;;;;;;;;;;7300440;19;141893;-73
2023/08/06 06:35:45;;;;;;;0.73;0.60;;;;;;;;;;7299686;19;140894;-73
2023/08/06 06:38:12;;;;;;;0.57;0.47;;;;;;;;;;7300614;19;140945;-73
2023/08/06 06:40:39;;;;;;;0.65;0.50;;;;;;;;;;7299674;19;140670;-73
2023/08/06 06:43:06;;;;;;;0.52;0.40;;;;;;;;;;7300517;19;141070;-73
2023/08/06 06:45:34;;;;;;;0.73;0.50;;;;;;;;;;7299062;19;140781;-73
2023/08/06 06:48:01;;;;;;;0.60;0.40;;;;;;;;;;7300459;19;140367;-73
2023/08/06 06:50:30;;;;;;;1.08;0.50;;;;;;;;;;7299985;19;140558;-73
2023/08/06 06:52:56;;;;;;;0.70;0.40;;;;;;;;;;7300654;19;141002;-73
2023/08/06 06:55:23;;;;;;;0.57;0.57;;;;;;;;;;7298161;19;141963;-73
2023/08/06 06:57:51;;;;;;;1.55;0.52;;;;;;;;;;7300306;19;140675;-73
2023/08/06 07:00:17;;;;;;;0.40;0.40;;;;;;;;;;7300928;19;140677;-73
2023/08/06 07:02:44;;;;;;;0.80;0.40;;;;;;;;;;7298060;19;141700;-73
2023/08/06 07:05:12;;;;;;;0.40;0.32;;;;;;;;;;7299003;19;141250;-73
2023/08/06 07:07:39;;;;;;;0.82;0.40;;;;;;;;;;7299885;19;140432;-73
2023/08/06 07:10:06;;;;;;;0.70;0.57;;;;;;;;;;7297943;19;140550;-73
2023/08/06 07:12:33;;;;;;;0.60;0.60;;;;;;;;;;7299615;19;141496;-73
2023/08/06 07:15:00;;;;;;;0.68;0.60;;;;;;;;;;7299488;19;142167;-75
2023/08/06 07:17:27;;;;;;;1.38;0.50;;;;;;;;;;7300542;19;140525;-76
2023/08/06 07:19:54;;;;;;;0.40;0.38;;;;;;;;;;7306611;19;140442;-75
2023/08/06 07:22:21;;;;;;;1.38;0.70;;;;;;;;;;7306508;19;141848;-76
2023/08/06 07:24:48;;;;;;;0.88;0.50;;;;;;;;;;7305994;19;141885;-75
2023/08/06 07:27:15;;;;;;;1.20;0.50;;;;;;;;;;7306596;19;141155;-75
2023/08/06 07:29:43;;;;;;;0.50;0.40;;;;;;;;;;7306834;19;140637;-75
2023/08/06 07:32:10;;;;;;;0.50;0.47;;;;;;;;;;7306326;19;140829;-75
2023/08/06 07:34:37;;;;;;;0.95;0.60;;;;;;;;;;7306660;19;141981;-75
2023/08/06 07:37:04;;;;;;;0.52;0.50;;;;;;;;;;7304335;19;140449;-75
2023/08/06 07:39:31;;;;;;;0.82;0.43;;;;;;;;;;7306230;19;140530;-75
2023/08/06 07:41:58;;;;;;;0.85;0.50;;;;;;;;;;7306129;19;141557;-75
2023/08/06 07:44:27;;;;;;;1.20;0.70;;;;;;;;;;7306487;19;141767;-75
2023/08/06 07:46:54;;;;;;;2.17;0.90;;;;;;;;;;7306207;19;140686;-73
2023/08/06 07:49:21;;;;;;;1.55;0.70;;;;;;;;;;7306765;19;140476;-75
2023/08/06 07:51:48;;;;;;;3.13;0.60;;;;;;;;;;7307662;19;141323;-75
2023/08/06 07:54:15;;;;;;;1.13;0.80;;;;;;;;;;7308394;19;142677;-76
2023/08/06 07:56:43;;;;;;;1.80;0.60;;;;;;;;;;7306933;19;140392;-76
2023/08/06 07:59:10;;;;;;;1.83;0.70;;;;;;;;;;7305487;19;140527;-76
2023/08/06 08:01:37;;;;;;;1.88;0.70;;;;;;;;;;7305751;19;141517;-76
2023/08/06 08:04:04;;;;;;;1.60;0.70;;;;;;;;;;7304912;19;142401;-76
2023/08/06 08:06:33;;;;;;;1.77;0.60;;;;;;;;;;7305053;19;140507;-76
2023/08/06 08:09:00;;;;;;;2.03;0.80;;;;;;;;;;7305809;19;140495;-75
2023/08/06 08:11:27;;;;;;;1.95;0.68;;;;;;;;;;7305320;19;141675;-74
2023/08/06 08:13:54;;;;;;;1.92;0.70;;;;;;;;;;7304828;19;142851;-75
2023/08/06 08:16:21;;;;;;;1.05;0.70;;;;;;;;;;7304327;19;140648;-75
2023/08/06 08:18:48;;;;;;;0.75;0.45;;;;;;;;;;7307568;19;140664;-75
2023/08/06 08:21:16;;;;;;;1.05;0.63;;;;;;;;;;7304485;19;141174;-74
2023/08/06 08:23:43;;;;;;;1.25;0.60;;;;;;;;;;7303326;19;141888;-75
2023/08/06 08:26:10;;;;;;;1.17;0.70;;;;;;;;;;7303509;19;140493;-75
2023/08/06 08:28:37;;;;;;;1.08;0.70;;;;;;;;;;7304640;19;140694;-75
2023/08/06 08:31:07;;;;;;;2.63;0.75;;;;;;;;;;7305163;19;140747;-74
2023/08/06 08:33:34;;;;;;;1.37;0.70;;;;;;;;;;7304445;19;142338;-75
2023/08/06 08:36:01;;;;;;;1.13;0.65;;;;;;;;;;7304552;19;140445;-74
2023/08/06 08:38:29;;;;;;;2.17;0.73;;;;;;;;;;7305335;19;140705;-75
2023/08/06 08:40:56;;;;;;;1.80;0.82;;;;;;;;;;7303762;19;141238;-74
2023/08/06 08:43:23;;;;;;;3.67;0.80;;;;;;;;;;7304395;19;141905;-75
2023/08/06 08:45:51;;;;;;;1.95;0.80;;;;;;;;;;7304541;19;140660;-75
2023/08/06 08:48:19;;;;;;;0.70;0.50;;;;;;;;;;7304233;19;140441;-75
2023/08/06 08:50:50;;;;;;;1.48;0.70;;;;;;;;;;7303626;19;142010;-75
2023/08/06 08:53:17;;;;;;;1.50;0.70;;;;;;;;;;7303327;19;142141;-75
2023/08/06 08:55:46;;;;;;;1.98;1.10;;;;;;;;;;7303838;19;140505;-74
2023/08/06 08:58:14;;;;;;;2.30;0.98;;;;;;;;;;7303411;19;140438;-74
2023/08/06 09:00:42;;;;;;;1.55;0.95;;;;;;;;;;7302910;19;141028;-74
2023/08/06 09:03:10;;;;;;;0.75;0.50;;;;;;;;;;7303636;19;141800;-75
2023/08/06 09:05:43;;;;;;;1.85;0.80;;;;;;;;;;7302612;19;140539;-75
2023/08/06 09:08:11;;;;;;;1.92;1.00;;;;;;;;;;7303695;19;140506;-74
2023/08/06 09:10:40;;;;;;;0.77;0.47;;;;;;;;;;7303462;19;141182;-75
2023/08/06 09:13:08;;;;;;;3.10;0.77;;;;;;;;;;7303856;19;140929;-75
2023/08/06 09:15:36;;;;;;;0.60;0.55;;;;;;;;;;7303709;19;140602;-74
2023/08/06 09:18:08;;;;;;;1.88;1.00;;;;;;;;;;7303651;19;140679;-75
2023/08/06 09:20:37;;;;;;;1.40;0.77;;;;;;;;;;7302979;19;141634;-75
2023/08/06 09:23:07;;;;;;;1.40;0.75;;;;;;;;;;7302652;19;142164;-76
2023/08/06 09:25:36;;;;;;;1.60;0.93;;;;;;;;;;7303868;19;140754;-93
2023/08/06 09:28:04;;;;;;;2.25;0.70;;;;;;;;;;7305697;19;140433;-80
2023/08/06 09:30:33;;;;;;;3.00;0.93;;;;;;;;;;7299812;19;142863;-80
2023/08/06 09:33:00;;;;;;;3.92;1.15;;;;;;;;;;7300945;19;141971;-82
2023/08/06 09:35:29;;;;;;;5.25;1.27;;;;;;;;;;7303011;19;140715;-75
2023/08/06 09:38:06;;;;;;;4.50;1.25;;;;;;;;;;7302079;19;141281;-75
2023/08/06 09:40:34;;;;;;;3.40;1.45;;;;;;;;;;7301407;19;141784;-79
2023/08/06 09:43:01;;;;;;;4.25;1.20;;;;;;;;;;7301935;19;142389;-75
2023/08/06 09:45:33;;;;;;;4.40;1.30;;;;;;;;;;7301684;19;140509;-76
2023/08/06 09:48:02;;;;;;;6.05;1.40;;;;;;;;;;7300979;19;140534;-80
2023/08/06 09:50:35;;;;;;;7.78;1.63;;;;;;;;;;7303301;19;140805;-79
2023/08/06 09:53:03;;;;;;;7.47;1.38;;;;;;;;;;7301974;19;140657;-77
2023/08/06 09:55:30;;;;;;;6.45;1.38;;;;;;;;;;7302364;19;140646;-79
2023/08/06 09:57:58;;;;;;;5.05;1.30;;;;;;;;;;7302391;19;140970;-79
2023/08/06 10:00:25;;;;;;;11.68;7.03;;;;;;;;;;7302603;19;141138;-77
2023/08/06 10:02:55;;;;;;;12.60;3.50;;;;;;;;;;7300767;19;141901;-78
2023/08/06 10:05:23;;;;;;;5.65;2.65;;;;;;;;;;7301633;19;140827;-79
2023/08/06 10:07:51;;;;;;;6.82;1.70;;;;;;;;;;7302488;19;140657;-79
2023/08/06 10:10:21;;;;;;;6.57;1.63;;;;;;;;;;7302484;19;140364;-78
2023/08/06 10:12:50;;;;;;;6.90;1.60;;;;;;;;;;7301592;19;141826;-78
2023/08/06 10:15:38;;;;;;;9.95;2.58;;;;;;;;;;7300412;19;140576;-79
2023/08/06 10:18:06;;;;;;;6.68;1.70;;;;;;;;;;7301400;19;140783;-79
2023/08/06 10:20:34;;;;;;;6.40;1.67;;;;;;;;;;7301695;19;141863;-77
2023/08/06 10:23:02;;;;;;;4.18;1.42;;;;;;;;;;7300317;19;141413;-77
2023/08/06 10:25:33;;;;;;;7.22;1.55;;;;;;;;;;7304967;19;140473;-77
2023/08/06 10:28:07;;;;;;;7.97;1.50;;;;;;;;;;7302170;19;140496;-77
2023/08/06 10:30:40;;;;;;;4.90;1.42;;;;;;;;;;7302271;19;141462;-77
2023/08/06 10:33:09;;;;;;;4.15;1.23;;;;;;;;;;7299603;19;142927;-76
2023/08/06 10:35:39;;;;;;;6.55;1.42;;;;;;;;;;7301607;19;140443;-78
2023/08/06 10:38:14;;;;;;;4.07;1.20;;;;;;;;;;7300510;19;140552;-78
2023/08/06 10:40:47;;;;;;;5.85;1.40;;;;;;;;;;7301274;19;140994;-77
2023/08/06 10:43:28;;;;;;;5.00;1.45;;;;;;;;;;7300764;19;140664;-78
2023/08/06 10:45:55;;;;;;;;;;;;;;;;;;7301989;19;140626;-77
2023/08/06 10:48:28;;;;;;;4.28;1.17;;;;;;;;;;7300660;19;144459;-77
2023/08/06 10:50:56;;;;;;;4.03;1.23;;;;;;;;;;7299894;19;140503;-76
2023/08/06 10:53:23;;;;;;;5.05;1.33;;;;;;;;;;7305005;19;141481;-76
2023/08/06 10:55:50;;;;;;;3.70;1.33;;;;;;;;;;7307260;19;141264;-77
2023/08/06 10:58:18;;;;;;;6.00;1.27;;;;;;;;;;7307201;19;140593;-77
2023/08/06 11:00:55;;;;;;;7.53;1.73;;;;;;;;;;7305849;19;142015;-78
2023/08/06 11:04:00;;;;;;;6.50;1.52;;;;;;;;;;7306688;19;143604;-77
2023/08/06 11:06:31;;;;;;;5.60;1.40;;;;;;;;;;7306150;19;140680;-76
2023/08/06 11:08:59;;;;;;;6.95;1.20;;;;;;;;;;7305998;19;140706;-79
2023/08/06 11:11:37;;;;;;;9.05;1.70;;;;;;;;;;7305737;19;140779;-80
2023/08/06 11:14:04;;;;;;;10.10;1.10;;;;;;;;;;7298420;19;143007;-75
2023/08/06 11:16:31;;;;;;;4.28;1.15;;;;;;;;;;7308417;19;140738;-78
2023/08/06 11:19:01;;;;;;;3.92;1.10;;;;;;;;;;7306350;19;140578;-80
2023/08/06 11:21:29;;;;;;;9.25;1.88;;;;;;;;;;7306368;19;140419;-75
2023/08/06 11:23:56;;;;;;;4.00;1.30;;;;;;;;;;7305242;19;142745;-76
2023/08/06 11:26:24;;;;;;;5.75;1.30;;;;;;;;;;7306024;19;140488;-76
2023/08/06 11:28:52;;;;;;;4.22;1.20;;;;;;;;;;7306409;19;140723;-75
2023/08/06 11:31:23;;;;;;;4.75;1.42;;;;;;;;;;7305569;19;142412;-76
2023/08/06 11:33:51;;;;;;;3.70;1.00;;;;;;;;;;7305160;19;142071;-77
2023/08/06 11:36:31;;;;;;;3.53;1.25;;;;;;;;;;7306255;19;140514;-75
2023/08/06 11:38:59;;;;;;;2.63;1.03;;;;;;;;;;7307926;19;140828;-76
2023/08/06 11:41:30;;;;;;;3.65;1.20;;;;;;;;;;7306536;19;142037;-76
2023/08/06 11:43:57;;;;;;;4.00;1.10;;;;;;;;;;7307297;19;141850;-77
2023/08/06 11:46:25;;;;;;;5.57;1.38;;;;;;;;;;7306021;19;140964;-77
2023/08/06 11:48:54;;;;;;;5.20;1.38;;;;;;;;;;7304814;19;140710;-82
2023/08/06 11:51:27;;;;;;;3.65;1.30;;;;;;;;;;7306111;19;142274;-80
2023/08/06 11:53:57;;;;;;;3.25;1.02;;;;;;;;;;7306486;19;140821;-78
2023/08/06 11:56:26;;;;;;;4.05;1.00;;;;;;;;;;7306340;19;140702;-76
2023/08/06 11:58:54;;;;;;;2.42;0.90;;;;;;;;;;7306929;19;140386;-74
2023/08/06 12:01:21;;;;;;;2.53;1.02;;;;;;;;;;7305736;19;141695;-76
2023/08/06 12:03:48;;;;;;;6.38;2.22;;;;;;;;;;7303407;19;141382;-76
2023/08/06 12:06:16;;;;;;;9.70;4.82;;;;;;;;;;7304496;19;140605;-76
2023/08/06 12:08:44;;;;;;;23.98;12.85;;;;;;;;;;7305249;19;140612;-78
2023/08/06 12:11:11;;;;;;;49.95;36.28;;;;;;;;;;7304876;19;140907;-75
2023/08/06 12:13:38;;;;;;;34.05;20.38;;;;;;;;;;7303100;19;141952;-75
2023/08/06 12:16:05;;;;;;;35.65;20.67;;;;;;;;;;7304459;19;140601;-76
2023/08/06 12:18:33;;;;;;;52.50;30.67;;;;;;;;;;7303124;19;140789;-76
2023/08/06 12:21:06;;;;;;;58.92;33.33;;;;;;;;;;7303150;19;140879;-74
2023/08/06 12:23:33;;;;;;;62.83;35.65;;;;;;;;;;7304625;19;141589;-76
2023/08/06 12:26:01;;;;;;;65.70;40.40;;;;;;;;;;7302593;19;140798;-76
2023/08/06 12:28:28;;;;;;;62.65;36.78;;;;;;;;;;7303075;19;140723;-75
2023/08/06 12:30:55;;;;;;;60.42;37.28;;;;;;;;;;7304177;19;140911;-75
2023/08/06 12:33:22;;;;;;;57.75;35.67;;;;;;;;;;7304197;19;142225;-74
2023/08/06 12:35:49;;;;;;;60.05;38.58;;;;;;;;;;7304483;19;141023;-75
2023/08/06 12:38:16;;;;;;;58.13;36.92;;;;;;;;;;7303497;19;141606;-77
2023/08/06 12:40:43;;;;;;;56.65;36.42;;;;;;;;;;7304303;19;142110;-75
2023/08/06 12:43:11;;;;;;;57.30;36.60;;;;;;;;;;7303586;19;140652;-76
2023/08/06 12:45:38;;;;;;;51.45;34.50;;;;;;;;;;7304051;19;140536;-76
2023/08/06 12:48:05;;;;;;;53.05;34.88;;;;;;;;;;7304174;19;140439;-76
2023/08/06 12:50:35;;;;;;;55.75;34.97;;;;;;;;;;7303622;19;141129;-75
2023/08/06 12:53:03;;;;;;;52.50;32.73;;;;;;;;;;7305338;19;142442;-75
2023/08/06 12:55:30;;;;;;;51.50;33.22;;;;;;;;;;7307127;19;140340;-76
2023/08/06 12:57:59;;;;;;;49.80;33.80;;;;;;;;;;7304036;19;140693;-73
2023/08/06 13:00:26;;;;;;;46.75;30.90;;;;;;;;;;7302675;19;140940;-73
2023/08/06 13:02:53;;;;;;;48.55;31.52;;;;;;;;;;7302561;19;141891;-73
2023/08/06 13:05:21;;;;;;;47.15;31.17;;;;;;;;;;7302098;19;140617;-74
2023/08/06 13:07:48;;;;;;;42.58;29.58;;;;;;;;;;7302982;19;140514;-74
2023/08/06 13:10:15;;;;;;;39.15;26.88;;;;;;;;;;7303756;19;141029;-74
2023/08/06 13:12:45;;;;;;;39.38;26.90;;;;;;;;;;7302908;19;141722;-75
2023/08/06 13:15:14;;;;;;;39.25;26.08;;;;;;;;;;7300080;19;141070;-75
2023/08/06 13:17:43;;;;;;;35.05;24.35;;;;;;;;;;7303133;19;140914;-75
2023/08/06 13:20:11;;;;;;;34.63;23.70;;;;;;;;;;7302542;19;141200;-76
2023/08/06 13:22:38;;;;;;;35.72;24.33;;;;;;;;;;7302620;19;142194;-75
2023/08/06 13:25:06;;;;;;;31.65;22.05;;;;;;;;;;7301959;19;140536;-75
2023/08/06 13:27:34;;;;;;;32.38;22.40;;;;;;;;;;7302722;19;140478;-75
2023/08/06 13:30:02;;;;;;;31.98;21.88;;;;;;;;;;7303702;19;140461;-74
2023/08/06 13:32:30;;;;;;;29.20;21.40;;;;;;;;;;7302324;19;142217;-74
2023/08/06 13:35:00;;;;;;;30.63;21.83;;;;;;;;;;7301412;19;140769;-75
2023/08/06 13:37:27;;;;;;;30.77;20.00;;;;;;;;;;7300767;19;140600;-74
2023/08/06 13:39:54;;;;;;;30.30;20.70;;;;;;;;;;7300603;19;141119;-74
2023/08/06 13:42:22;;;;;;;29.17;19.42;;;;;;;;;;7300363;19;143148;-74
2023/08/06 13:44:49;;;;;;;30.30;20.23;;;;;;;;;;7301220;19;140869;-75
2023/08/06 13:47:17;;;;;;;27.05;18.88;;;;;;;;;;7302295;19;140656;-75
2023/08/06 13:49:49;;;;;;;25.52;17.88;;;;;;;;;;7300503;19;140868;-74
2023/08/06 13:52:16;;;;;;;28.17;18.83;;;;;;;;;;7301331;19;142968;-75
2023/08/06 13:54:48;;;;;;;25.83;17.95;;;;;;;;;;7301293;19;140710;-75
2023/08/06 13:57:17;;;;;;;24.27;16.90;;;;;;;;;;7300703;19;140692;-76
2023/08/06 13:59:46;;;;;;;23.08;16.55;;;;;;;;;;7302294;19;140670;-75
2023/08/06 14:02:13;;;;;;;20.48;15.40;;;;;;;;;;7301648;19;142427;-74
2023/08/06 14:04:40;;;;;;;20.60;15.27;;;;;;;;;;7302095;19;140637;-75
2023/08/06 14:07:07;;;;;;;22.80;16.08;;;;;;;;;;7300596;19;140461;-74
2023/08/06 14:09:34;;;;;;;20.42;14.73;;;;;;;;;;7300692;19;141543;-74
2023/08/06 14:12:01;;;;;;;18.10;14.52;;;;;;;;;;7300031;19;142127;-74
2023/08/06 14:14:29;;;;;;;19.63;14.38;;;;;;;;;;7299837;19;140665;-74
2023/08/06 14:16:56;;;;;;;20.80;13.43;;;;;;;;;;7299954;19;140569;-73
2023/08/06 14:19:25;;;;;;;16.95;13.13;;;;;;;;;;7301501;19;140683;-74
2023/08/06 14:21:52;;;;;;;21.40;13.93;;;;;;;;;;7299915;19;142587;-74
2023/08/06 14:24:19;;;;;;;18.85;12.90;;;;;;;;;;7301135;19;140518;-74
2023/08/06 14:26:46;;;;;;;20.17;12.65;;;;;;;;;;7300297;19;140680;-74
2023/08/06 14:29:14;;;;;;;15.40;12.23;;;;;;;;;;7300489;19;141195;-75
2023/08/06 14:31:41;;;;;;;16.35;12.10;;;;;;;;;;7300713;19;142952;-75
2023/08/06 14:34:09;;;;;;;16.23;11.13;;;;;;;;;;7301122;19;140422;-75
2023/08/06 14:36:36;;;;;;;14.13;10.65;;;;;;;;;;7301402;19;140562;-74